<?xml version="1.0" encoding="UTF-8" standalone="no" ?>
<gpx xmlns="http://www.topografix.com/GPX/1/1" xmlns:xsi="http://www.w3.org/2001/XMLSchema-instance" xsi:schemaLocation="http://www.topografix.com/GPX/1/1 http://www.topografix.com/GPX/1/1/gpx.xsd" version="1.1" creator="VisuGPX - https://www.visugpx.com">
  <metadata>
    <name>Pic du Pichaley depuis Espiaube</name>
  </metadata>
  <trk>
    <name><![CDATA[Pic du Pichaley : Par le col de Portet]]></name>
    <trkseg>
      <trkpt lat="42.82558" lon="0.25816">
        <ele>1603.3023220375</ele>
        <time>2020-12-18T08:19:39Z</time>
      </trkpt>
      <trkpt lat="42.8255" lon="0.25814">
        <ele>1601.3019881025</ele>
        <time>2020-12-18T08:20:43Z</time>
      </trkpt>
      <trkpt lat="42.8258" lon="0.25829">
        <ele>1599.3031905703</ele>
        <time>2020-12-18T08:24:56Z</time>
      </trkpt>
      <trkpt lat="42.82584" lon="0.25819">
        <ele>1603.3033521734</ele>
        <time>2020-12-18T08:25:12Z</time>
      </trkpt>
      <trkpt lat="42.82562" lon="0.25801">
        <ele>1607.3024876639</ele>
        <time>2020-12-18T08:28:01Z</time>
      </trkpt>
      <trkpt lat="42.82537" lon="0.25795">
        <ele>1604.3014657423</ele>
        <time>2020-12-18T08:28:24Z</time>
      </trkpt>
      <trkpt lat="42.82521" lon="0.25801">
        <ele>1604.3008216769</ele>
        <time>2020-12-18T08:28:39Z</time>
      </trkpt>
      <trkpt lat="42.8251" lon="0.25819">
        <ele>1608.3003881648</ele>
        <time>2020-12-18T08:28:58Z</time>
      </trkpt>
      <trkpt lat="42.82482" lon="0.25903">
        <ele>1614.2992830947</ele>
        <time>2020-12-18T08:30:13Z</time>
      </trkpt>
      <trkpt lat="42.82452" lon="0.25958">
        <ele>1624.2980673835</ele>
        <time>2020-12-18T08:31:09Z</time>
      </trkpt>
      <trkpt lat="42.82438" lon="0.26025">
        <ele>1624.2975002639</ele>
        <time>2020-12-18T08:32:08Z</time>
      </trkpt>
      <trkpt lat="42.82437" lon="0.2606">
        <ele>1631.2974778004</ele>
        <time>2020-12-18T08:32:32Z</time>
      </trkpt>
      <trkpt lat="42.8239" lon="0.26205">
        <ele>1643.2956151739</ele>
        <time>2020-12-18T08:34:31Z</time>
      </trkpt>
      <trkpt lat="42.82383" lon="0.26198">
        <ele>1644.2953332067</ele>
        <time>2020-12-18T08:34:50Z</time>
      </trkpt>
      <trkpt lat="42.82373" lon="0.26153">
        <ele>1654.2949115969</ele>
        <time>2020-12-18T08:35:35Z</time>
      </trkpt>
      <trkpt lat="42.82372" lon="0.26097">
        <ele>1667.2948673405</ele>
        <time>2020-12-18T08:36:32Z</time>
      </trkpt>
      <trkpt lat="42.82383" lon="0.26068">
        <ele>1666.2953335419</ele>
        <time>2020-12-18T08:36:57Z</time>
      </trkpt>
      <trkpt lat="42.82383" lon="0.26032">
        <ele>1672.2953026965</ele>
        <time>2020-12-18T08:37:34Z</time>
      </trkpt>
      <trkpt lat="42.82363" lon="0.25896">
        <ele>1695.2945317291</ele>
        <time>2020-12-18T08:39:49Z</time>
      </trkpt>
      <trkpt lat="42.82368" lon="0.25875">
        <ele>1695.2947246805</ele>
        <time>2020-12-18T08:40:07Z</time>
      </trkpt>
      <trkpt lat="42.82389" lon="0.25841">
        <ele>1696.2955519743</ele>
        <time>2020-12-18T08:40:43Z</time>
      </trkpt>
      <trkpt lat="42.82387" lon="0.25771">
        <ele>1708.2954663113</ele>
        <time>2020-12-18T08:41:42Z</time>
      </trkpt>
      <trkpt lat="42.82383" lon="0.25737">
        <ele>1712.2953122519</ele>
        <time>2020-12-18T08:42:16Z</time>
      </trkpt>
      <trkpt lat="42.82366" lon="0.25697">
        <ele>1724.2946437113</ele>
        <time>2020-12-18T08:43:05Z</time>
      </trkpt>
      <trkpt lat="42.82358" lon="0.25664">
        <ele>1725.294322852</ele>
        <time>2020-12-18T08:43:45Z</time>
      </trkpt>
      <trkpt lat="42.82359" lon="0.2564">
        <ele>1732.2943495065</ele>
        <time>2020-12-18T08:44:15Z</time>
      </trkpt>
      <trkpt lat="42.82327" lon="0.25525">
        <ele>1758.2930801511</ele>
        <time>2020-12-18T08:47:01Z</time>
      </trkpt>
      <trkpt lat="42.82323" lon="0.25478">
        <ele>1767.2929177098</ele>
        <time>2020-12-18T08:48:20Z</time>
      </trkpt>
      <trkpt lat="42.82336" lon="0.25435">
        <ele>1768.2934546545</ele>
        <time>2020-12-18T08:48:59Z</time>
      </trkpt>
      <trkpt lat="42.82381" lon="0.25349">
        <ele>1784.2952463701</ele>
        <time>2020-12-18T08:50:32Z</time>
      </trkpt>
      <trkpt lat="42.82457" lon="0.25255">
        <ele>1802.2982801162</ele>
        <time>2020-12-18T08:52:46Z</time>
      </trkpt>
      <trkpt lat="42.82499" lon="0.25169">
        <ele>1813.299943421</ele>
        <time>2020-12-18T08:54:23Z</time>
      </trkpt>
      <trkpt lat="42.82525" lon="0.25038">
        <ele>1823.3009802625</ele>
        <time>2020-12-18T08:56:02Z</time>
      </trkpt>
      <trkpt lat="42.82536" lon="0.24936">
        <ele>1835.3014486432</ele>
        <time>2020-12-18T08:57:32Z</time>
      </trkpt>
      <trkpt lat="42.82548" lon="0.24893">
        <ele>1838.3019093126</ele>
        <time>2020-12-18T08:58:13Z</time>
      </trkpt>
      <trkpt lat="42.82563" lon="0.24864">
        <ele>1844.3025253825</ele>
        <time>2020-12-18T08:58:44Z</time>
      </trkpt>
      <trkpt lat="42.82577" lon="0.24853">
        <ele>1845.3030871376</ele>
        <time>2020-12-18T08:59:00Z</time>
      </trkpt>
      <trkpt lat="42.82603" lon="0.24849">
        <ele>1847.3041080534</ele>
        <time>2020-12-18T08:59:28Z</time>
      </trkpt>
      <trkpt lat="42.82774" lon="0.24922">
        <ele>1858.3109592535</ele>
        <time>2020-12-18T09:02:29Z</time>
      </trkpt>
      <trkpt lat="42.82825" lon="0.24921">
        <ele>1864.3130061142</ele>
        <time>2020-12-18T09:03:22Z</time>
      </trkpt>
      <trkpt lat="42.82873" lon="0.24898">
        <ele>1874.3149161823</ele>
        <time>2020-12-18T09:04:27Z</time>
      </trkpt>
      <trkpt lat="42.82958" lon="0.24771">
        <ele>1906.3183135353</ele>
        <time>2020-12-18T09:10:13Z</time>
      </trkpt>
      <trkpt lat="42.83006" lon="0.24724">
        <ele>1919.3202383555</ele>
        <time>2020-12-18T09:11:35Z</time>
      </trkpt>
      <trkpt lat="42.83046" lon="0.24707">
        <ele>1931.3218486868</ele>
        <time>2020-12-18T09:12:34Z</time>
      </trkpt>
      <trkpt lat="42.83135" lon="0.24705">
        <ele>1943.3254116662</ele>
        <time>2020-12-18T09:14:24Z</time>
      </trkpt>
      <trkpt lat="42.83175" lon="0.24687">
        <ele>1945.3270139508</ele>
        <time>2020-12-18T09:15:10Z</time>
      </trkpt>
      <trkpt lat="42.83213" lon="0.24639">
        <ele>1947.3285287283</ele>
        <time>2020-12-18T09:16:07Z</time>
      </trkpt>
      <trkpt lat="42.83219" lon="0.24617">
        <ele>1947.3287424669</ele>
        <time>2020-12-18T09:16:27Z</time>
      </trkpt>
      <trkpt lat="42.83356" lon="0.24303">
        <ele>2011.3342570886</ele>
        <time>2020-12-18T09:23:18Z</time>
      </trkpt>
      <trkpt lat="42.83372" lon="0.2419">
        <ele>2035.3348723203</ele>
        <time>2020-12-18T09:26:05Z</time>
      </trkpt>
      <trkpt lat="42.83364" lon="0.24149">
        <ele>2048.3345482759</ele>
        <time>2020-12-18T09:27:12Z</time>
      </trkpt>
      <trkpt lat="42.83349" lon="0.24122">
        <ele>2063.333953999</ele>
        <time>2020-12-18T09:28:02Z</time>
      </trkpt>
      <trkpt lat="42.8336" lon="0.24042">
        <ele>2085.3344009221</ele>
        <time>2020-12-18T09:30:36Z</time>
      </trkpt>
      <trkpt lat="42.83335" lon="0.24034">
        <ele>2090.3334120251</ele>
        <time>2020-12-18T09:31:50Z</time>
      </trkpt>
      <trkpt lat="42.83331" lon="0.24025">
        <ele>2093.3332235999</ele>
        <time>2020-12-18T09:32:07Z</time>
      </trkpt>
      <trkpt lat="42.83334" lon="0.24014">
        <ele>2096.333373636</ele>
        <time>2020-12-18T09:32:27Z</time>
      </trkpt>
      <trkpt lat="42.83348" lon="0.24">
        <ele>2100.3339275122</ele>
        <time>2020-12-18T09:33:05Z</time>
      </trkpt>
      <trkpt lat="42.83363" lon="0.2397">
        <ele>2107.3345145807</ele>
        <time>2020-12-18T09:34:01Z</time>
      </trkpt>
      <trkpt lat="42.83429" lon="0.23903">
        <ele>2134.3371684588</ele>
        <time>2020-12-18T09:37:26Z</time>
      </trkpt>
      <trkpt lat="42.83428" lon="0.23857">
        <ele>2152.3371174969</ele>
        <time>2020-12-18T09:38:37Z</time>
      </trkpt>
      <trkpt lat="42.83486" lon="0.23793">
        <ele>2165.3394521922</ele>
        <time>2020-12-18T09:41:43Z</time>
      </trkpt>
      <trkpt lat="42.83507" lon="0.23717">
        <ele>2184.3402771391</ele>
        <time>2020-12-18T09:45:09Z</time>
      </trkpt>
      <trkpt lat="42.83573" lon="0.23665">
        <ele>2211.3429062068</ele>
        <time>2020-12-18T09:47:48Z</time>
      </trkpt>
      <trkpt lat="42.8359" lon="0.23529">
        <ele>2250.3436037488</ele>
        <time>2020-12-18T09:51:32Z</time>
      </trkpt>
      <trkpt lat="42.83638" lon="0.23513">
        <ele>2259.3455314189</ele>
        <time>2020-12-18T09:53:48Z</time>
      </trkpt>
      <trkpt lat="42.83704" lon="0.23513">
        <ele>2282.3481576368</ele>
        <time>2020-12-18T09:56:50Z</time>
      </trkpt>
      <trkpt lat="42.83686" lon="0.23447">
        <ele>2301.3474562392</ele>
        <time>2020-12-18T09:58:16Z</time>
      </trkpt>
      <trkpt lat="42.83689" lon="0.23436">
        <ele>2303.3475608453</ele>
        <time>2020-12-18T09:58:36Z</time>
      </trkpt>
      <trkpt lat="42.83704" lon="0.23432">
        <ele>2302.3481762446</ele>
        <time>2020-12-18T09:59:00Z</time>
      </trkpt>
      <trkpt lat="42.8375" lon="0.23465">
        <ele>2308.3499991409</ele>
        <time>2020-12-18T10:00:15Z</time>
      </trkpt>
      <trkpt lat="42.83867" lon="0.23631">
        <ele>2326.354661826</ele>
        <time>2020-12-18T10:04:25Z</time>
      </trkpt>
      <trkpt lat="42.83901" lon="0.23633">
        <ele>2325.3560488634</ele>
        <time>2020-12-18T10:05:07Z</time>
      </trkpt>
      <trkpt lat="42.83954" lon="0.23599">
        <ele>2336.3581476919</ele>
        <time>2020-12-18T10:06:04Z</time>
      </trkpt>
      <trkpt lat="42.83967" lon="0.23572">
        <ele>2342.3586705551</ele>
        <time>2020-12-18T10:32:09Z</time>
      </trkpt>
      <trkpt lat="42.83963" lon="0.23549">
        <ele>2339.3585372828</ele>
        <time>2020-12-18T10:32:19Z</time>
      </trkpt>
      <trkpt lat="42.84024" lon="0.23502">
        <ele>2333.3609484211</ele>
        <time>2020-12-18T10:33:03Z</time>
      </trkpt>
      <trkpt lat="42.8404" lon="0.23479">
        <ele>2330.3615862839</ele>
        <time>2020-12-18T10:33:54Z</time>
      </trkpt>
      <trkpt lat="42.84057" lon="0.23481">
        <ele>2319.3622952253</ele>
        <time>2020-12-18T10:34:16Z</time>
      </trkpt>
      <trkpt lat="42.84126" lon="0.23431">
        <ele>2299.3650263846</ele>
        <time>2020-12-18T10:36:14Z</time>
      </trkpt>
      <trkpt lat="42.84175" lon="0.23357">
        <ele>2283.3669936173</ele>
        <time>2020-12-18T10:37:10Z</time>
      </trkpt>
      <trkpt lat="42.84184" lon="0.23322">
        <ele>2280.3673532009</ele>
        <time>2020-12-18T10:37:30Z</time>
      </trkpt>
      <trkpt lat="42.84223" lon="0.23281">
        <ele>2279.3689248078</ele>
        <time>2020-12-18T10:39:59Z</time>
      </trkpt>
      <trkpt lat="42.84239" lon="0.23276">
        <ele>2278.3695663586</ele>
        <time>2020-12-18T10:40:12Z</time>
      </trkpt>
      <trkpt lat="42.84274" lon="0.23207">
        <ele>2272.3709718361</ele>
        <time>2020-12-18T10:40:39Z</time>
      </trkpt>
      <trkpt lat="42.84309" lon="0.23161">
        <ele>2271.3723644055</ele>
        <time>2020-12-18T10:41:36Z</time>
      </trkpt>
      <trkpt lat="42.84381" lon="0.2312">
        <ele>2266.3752444275</ele>
        <time>2020-12-18T10:42:32Z</time>
      </trkpt>
      <trkpt lat="42.84426" lon="0.2311">
        <ele>2267.3770280965</ele>
        <time>2020-12-18T10:46:08Z</time>
      </trkpt>
      <trkpt lat="42.84457" lon="0.23064">
        <ele>2271.3782940991</ele>
        <time>2020-12-18T10:46:56Z</time>
      </trkpt>
      <trkpt lat="42.84466" lon="0.23049">
        <ele>2277.3786201552</ele>
        <time>2020-12-18T10:47:17Z</time>
      </trkpt>
      <trkpt lat="42.84488" lon="0.22952">
        <ele>2288.3795067929</ele>
        <time>2020-12-18T10:48:58Z</time>
      </trkpt>
      <trkpt lat="42.84534" lon="0.22792">
        <ele>2295.381350141</ele>
        <time>2020-12-18T10:52:39Z</time>
      </trkpt>
      <trkpt lat="42.84558" lon="0.22657">
        <ele>2301.3823313266</ele>
        <time>2020-12-18T10:54:25Z</time>
      </trkpt>
      <trkpt lat="42.84562" lon="0.22648">
        <ele>2304.3824689575</ele>
        <time>2020-12-18T10:55:37Z</time>
      </trkpt>
      <trkpt lat="42.84602" lon="0.22612">
        <ele>2305.3840598427</ele>
        <time>2020-12-18T10:56:00Z</time>
      </trkpt>
      <trkpt lat="42.84612" lon="0.22589">
        <ele>2303.384487655</ele>
        <time>2020-12-18T10:56:09Z</time>
      </trkpt>
      <trkpt lat="42.84606" lon="0.2252">
        <ele>2302.3842227869</ele>
        <time>2020-12-18T10:56:59Z</time>
      </trkpt>
      <trkpt lat="42.8463" lon="0.22473">
        <ele>2313.385210678</ele>
        <time>2020-12-18T10:58:07Z</time>
      </trkpt>
      <trkpt lat="42.84628" lon="0.22415">
        <ele>2321.3851231709</ele>
        <time>2020-12-18T10:59:15Z</time>
      </trkpt>
      <trkpt lat="42.84636" lon="0.22411">
        <ele>2328.3854423538</ele>
        <time>2020-12-18T10:59:35Z</time>
      </trkpt>
      <trkpt lat="42.84653" lon="0.22415">
        <ele>2333.3861174323</ele>
        <time>2020-12-18T11:00:25Z</time>
      </trkpt>
      <trkpt lat="42.84677" lon="0.22404">
        <ele>2334.3870764896</ele>
        <time>2020-12-18T11:00:54Z</time>
      </trkpt>
      <trkpt lat="42.84717" lon="0.22361">
        <ele>2344.3886739127</ele>
        <time>2020-12-18T11:02:02Z</time>
      </trkpt>
      <trkpt lat="42.84741" lon="0.22363">
        <ele>2350.3896443695</ele>
        <time>2020-12-18T11:03:03Z</time>
      </trkpt>
      <trkpt lat="42.8476" lon="0.22311">
        <ele>2359.390399076</ele>
        <time>2020-12-18T11:04:06Z</time>
      </trkpt>
      <trkpt lat="42.8476" lon="0.22277">
        <ele>2361.3904138282</ele>
        <time>2020-12-18T11:04:48Z</time>
      </trkpt>
      <trkpt lat="42.84768" lon="0.22256">
        <ele>2367.3907082006</ele>
        <time>2020-12-18T11:05:16Z</time>
      </trkpt>
      <trkpt lat="42.8484" lon="0.22124">
        <ele>2397.3936123624</ele>
        <time>2020-12-18T11:08:31Z</time>
      </trkpt>
      <trkpt lat="42.84901" lon="0.22084">
        <ele>2410.3960400969</ele>
        <time>2020-12-18T11:10:20Z</time>
      </trkpt>
      <trkpt lat="42.84935" lon="0.22077">
        <ele>2418.3973791897</ele>
        <time>2020-12-18T11:11:18Z</time>
      </trkpt>
      <trkpt lat="42.84956" lon="0.22064">
        <ele>2416.3982500695</ele>
        <time>2020-12-18T11:12:06Z</time>
      </trkpt>
      <trkpt lat="42.84968" lon="0.22034">
        <ele>2423.3987275027</ele>
        <time>2020-12-18T11:12:58Z</time>
      </trkpt>
      <trkpt lat="42.84976" lon="0.22029">
        <ele>2440.3990431651</ele>
        <time>2020-12-18T11:13:28Z</time>
      </trkpt>
      <trkpt lat="42.84991" lon="0.22037">
        <ele>2449.3996471651</ele>
        <time>2020-12-18T11:14:00Z</time>
      </trkpt>
      <trkpt lat="42.85008" lon="0.22036">
        <ele>2454.4003250934</ele>
        <time>2020-12-18T11:14:22Z</time>
      </trkpt>
      <trkpt lat="42.85037" lon="0.22012">
        <ele>2461.4014848135</ele>
        <time>2020-12-18T11:19:59Z</time>
      </trkpt>
      <trkpt lat="42.85105" lon="0.22003">
        <ele>2488.4041988738</ele>
        <time>2020-12-18T11:22:26Z</time>
      </trkpt>
      <trkpt lat="42.85109" lon="0.21992">
        <ele>2492.404369697</ele>
        <time>2020-12-18T11:22:48Z</time>
      </trkpt>
      <trkpt lat="42.85098" lon="0.21937">
        <ele>2509.4039078541</ele>
        <time>2020-12-18T11:24:13Z</time>
      </trkpt>
      <trkpt lat="42.85098" lon="0.21925">
        <ele>2508.4039192535</ele>
        <time>2020-12-18T11:24:50Z</time>
      </trkpt>
      <trkpt lat="42.85105" lon="0.21918">
        <ele>2514.4041970298</ele>
        <time>2020-12-18T11:25:08Z</time>
      </trkpt>
      <trkpt lat="42.85121" lon="0.21924">
        <ele>2528.4048429392</ele>
        <time>2020-12-18T11:25:56Z</time>
      </trkpt>
      <trkpt lat="42.85154" lon="0.21915">
        <ele>2547.4061651006</ele>
        <time>2020-12-18T11:27:19Z</time>
      </trkpt>
      <trkpt lat="42.85221" lon="0.21921">
        <ele>2573.4088251814</ele>
        <time>2020-12-18T11:29:55Z</time>
      </trkpt>
      <trkpt lat="42.85251" lon="0.21941">
        <ele>2587.4100355282</ele>
        <time>2020-12-18T11:30:48Z</time>
      </trkpt>
      <trkpt lat="42.8526" lon="0.21938">
        <ele>2591.4103874005</ele>
        <time>2020-12-18T11:31:00Z</time>
      </trkpt>
      <trkpt lat="42.85328" lon="0.21987">
        <ele>2614.413118057</ele>
        <time>2020-12-18T11:33:16Z</time>
      </trkpt>
      <trkpt lat="42.85354" lon="0.21992">
        <ele>2618.4141470194</ele>
        <time>2020-12-18T11:47:25Z</time>
      </trkpt>
      <trkpt lat="42.85357" lon="0.21984">
        <ele>2622.4142638631</ele>
        <time>2020-12-18T11:48:03Z</time>
      </trkpt>
      <trkpt lat="42.85343" lon="0.21995">
        <ele>2619.4137113281</ele>
        <time>2020-12-18T11:54:29Z</time>
      </trkpt>
      <trkpt lat="42.85325" lon="0.21993">
        <ele>2615.4130132832</ele>
        <time>2020-12-18T11:55:02Z</time>
      </trkpt>
      <trkpt lat="42.85296" lon="0.21971">
        <ele>2602.411848031</ele>
        <time>2020-12-18T11:58:12Z</time>
      </trkpt>
      <trkpt lat="42.85289" lon="0.21975">
        <ele>2598.4115682431</ele>
        <time>2020-12-18T11:58:30Z</time>
      </trkpt>
      <trkpt lat="42.85271" lon="0.2197">
        <ele>2592.4108344913</ele>
        <time>2020-12-18T11:59:25Z</time>
      </trkpt>
      <trkpt lat="42.85268" lon="0.2199">
        <ele>2585.4107002132</ele>
        <time>2020-12-18T11:59:35Z</time>
      </trkpt>
      <trkpt lat="42.85238" lon="0.22001">
        <ele>2569.4095326141</ele>
        <time>2020-12-18T11:59:48Z</time>
      </trkpt>
      <trkpt lat="42.85237" lon="0.22014">
        <ele>2564.4094903693</ele>
        <time>2020-12-18T11:59:52Z</time>
      </trkpt>
      <trkpt lat="42.85262" lon="0.22077">
        <ele>2550.4104847983</ele>
        <time>2020-12-18T12:00:12Z</time>
      </trkpt>
      <trkpt lat="42.85266" lon="0.22119">
        <ele>2544.4106215909</ele>
        <time>2020-12-18T12:00:21Z</time>
      </trkpt>
      <trkpt lat="42.85237" lon="0.22129">
        <ele>2532.4094896987</ele>
        <time>2020-12-18T12:00:35Z</time>
      </trkpt>
      <trkpt lat="42.85232" lon="0.22142">
        <ele>2525.4092898741</ele>
        <time>2020-12-18T12:00:40Z</time>
      </trkpt>
      <trkpt lat="42.85234" lon="0.22204">
        <ele>2510.4093581028</ele>
        <time>2020-12-18T12:00:56Z</time>
      </trkpt>
      <trkpt lat="42.85228" lon="0.22196">
        <ele>2508.4091250859</ele>
        <time>2020-12-18T12:01:03Z</time>
      </trkpt>
      <trkpt lat="42.85212" lon="0.22198">
        <ele>2503.4084615745</ele>
        <time>2020-12-18T12:01:08Z</time>
      </trkpt>
      <trkpt lat="42.85201" lon="0.22188">
        <ele>2498.4080552198</ele>
        <time>2020-12-18T12:01:13Z</time>
      </trkpt>
      <trkpt lat="42.85176" lon="0.22191">
        <ele>2490.4070284367</ele>
        <time>2020-12-18T12:01:22Z</time>
      </trkpt>
      <trkpt lat="42.85146" lon="0.22179">
        <ele>2472.4058340155</ele>
        <time>2020-12-18T12:03:54Z</time>
      </trkpt>
      <trkpt lat="42.85141" lon="0.22235">
        <ele>2463.4056424052</ele>
        <time>2020-12-18T12:04:03Z</time>
      </trkpt>
      <trkpt lat="42.85113" lon="0.22239">
        <ele>2459.4045247622</ele>
        <time>2020-12-18T12:04:12Z</time>
      </trkpt>
      <trkpt lat="42.85116" lon="0.22278">
        <ele>2454.404655017</ele>
        <time>2020-12-18T12:04:20Z</time>
      </trkpt>
      <trkpt lat="42.85095" lon="0.22303">
        <ele>2448.4037873223</ele>
        <time>2020-12-18T12:04:30Z</time>
      </trkpt>
      <trkpt lat="42.8508" lon="0.22309">
        <ele>2443.4031883515</ele>
        <time>2020-12-18T12:04:35Z</time>
      </trkpt>
      <trkpt lat="42.85068" lon="0.22329">
        <ele>2438.4027219824</ele>
        <time>2020-12-18T12:04:39Z</time>
      </trkpt>
      <trkpt lat="42.85045" lon="0.22383">
        <ele>2430.4018056728</ele>
        <time>2020-12-18T12:04:48Z</time>
      </trkpt>
      <trkpt lat="42.85039" lon="0.22427">
        <ele>2430.4015599154</ele>
        <time>2020-12-18T12:05:02Z</time>
      </trkpt>
      <trkpt lat="42.8501" lon="0.22419">
        <ele>2420.4003857784</ele>
        <time>2020-12-18T12:05:34Z</time>
      </trkpt>
      <trkpt lat="42.84999" lon="0.22431">
        <ele>2418.3999562897</ele>
        <time>2020-12-18T12:05:38Z</time>
      </trkpt>
      <trkpt lat="42.84981" lon="0.22453">
        <ele>2413.3992235437</ele>
        <time>2020-12-18T12:05:46Z</time>
      </trkpt>
      <trkpt lat="42.84969" lon="0.225">
        <ele>2404.3987600245</ele>
        <time>2020-12-18T12:05:55Z</time>
      </trkpt>
      <trkpt lat="42.84957" lon="0.22518">
        <ele>2398.3982958347</ele>
        <time>2020-12-18T12:06:00Z</time>
      </trkpt>
      <trkpt lat="42.8487" lon="0.22585">
        <ele>2375.3947816379</ele>
        <time>2020-12-18T12:08:21Z</time>
      </trkpt>
      <trkpt lat="42.84833" lon="0.2263">
        <ele>2361.393308267</ele>
        <time>2020-12-18T12:08:38Z</time>
      </trkpt>
      <trkpt lat="42.84831" lon="0.2265">
        <ele>2356.3932207599</ele>
        <time>2020-12-18T12:08:42Z</time>
      </trkpt>
      <trkpt lat="42.84786" lon="0.22685">
        <ele>2344.3914459758</ele>
        <time>2020-12-18T12:08:54Z</time>
      </trkpt>
      <trkpt lat="42.8476" lon="0.22682">
        <ele>2337.3903965615</ele>
        <time>2020-12-18T12:08:58Z</time>
      </trkpt>
      <trkpt lat="42.84655" lon="0.22712">
        <ele>2314.386179626</ele>
        <time>2020-12-18T12:09:23Z</time>
      </trkpt>
      <trkpt lat="42.84649" lon="0.2272">
        <ele>2313.3859412447</ele>
        <time>2020-12-18T12:09:27Z</time>
      </trkpt>
      <trkpt lat="42.84637" lon="0.2281">
        <ele>2312.3854906335</ele>
        <time>2020-12-18T12:12:12Z</time>
      </trkpt>
      <trkpt lat="42.84618" lon="0.22845">
        <ele>2311.3847179897</ele>
        <time>2020-12-18T12:12:21Z</time>
      </trkpt>
      <trkpt lat="42.84602" lon="0.22897">
        <ele>2306.3840598427</ele>
        <time>2020-12-18T12:12:30Z</time>
      </trkpt>
      <trkpt lat="42.84565" lon="0.22937">
        <ele>2303.3826137967</ele>
        <time>2020-12-18T12:12:39Z</time>
      </trkpt>
      <trkpt lat="42.84547" lon="0.23012">
        <ele>2300.3818622753</ele>
        <time>2020-12-18T12:12:57Z</time>
      </trkpt>
      <trkpt lat="42.84493" lon="0.23034">
        <ele>2284.3797242194</ele>
        <time>2020-12-18T12:14:02Z</time>
      </trkpt>
      <trkpt lat="42.8448" lon="0.23047">
        <ele>2276.3791849278</ele>
        <time>2020-12-18T12:14:06Z</time>
      </trkpt>
      <trkpt lat="42.84472" lon="0.2307">
        <ele>2272.378871277</ele>
        <time>2020-12-18T12:14:10Z</time>
      </trkpt>
      <trkpt lat="42.84461" lon="0.23083">
        <ele>2269.3784573786</ele>
        <time>2020-12-18T12:14:14Z</time>
      </trkpt>
      <trkpt lat="42.84446" lon="0.23077">
        <ele>2263.3778438233</ele>
        <time>2020-12-18T12:16:06Z</time>
      </trkpt>
      <trkpt lat="42.84439" lon="0.23085">
        <ele>2266.3775767758</ele>
        <time>2020-12-18T12:18:38Z</time>
      </trkpt>
      <trkpt lat="42.84464" lon="0.23114">
        <ele>2266.378546562</ele>
        <time>2020-12-18T12:57:18Z</time>
      </trkpt>
      <trkpt lat="42.8448" lon="0.23203">
        <ele>2290.3792087324</ele>
        <time>2020-12-18T12:59:26Z</time>
      </trkpt>
      <trkpt lat="42.84492" lon="0.23221">
        <ele>2297.3796714135</ele>
        <time>2020-12-18T13:00:05Z</time>
      </trkpt>
      <trkpt lat="42.84473" lon="0.23245">
        <ele>2303.3789126836</ele>
        <time>2020-12-18T13:00:51Z</time>
      </trkpt>
      <trkpt lat="42.84456" lon="0.23285">
        <ele>2312.3782409579</ele>
        <time>2020-12-18T13:01:36Z</time>
      </trkpt>
      <trkpt lat="42.84395" lon="0.23328">
        <ele>2323.3757818751</ele>
        <time>2020-12-18T13:03:29Z</time>
      </trkpt>
      <trkpt lat="42.84357" lon="0.23392">
        <ele>2341.3742721267</ele>
        <time>2020-12-18T13:06:14Z</time>
      </trkpt>
      <trkpt lat="42.84371" lon="0.23405">
        <ele>2349.3748488016</ele>
        <time>2020-12-18T13:07:03Z</time>
      </trkpt>
      <trkpt lat="42.84365" lon="0.23438">
        <ele>2362.3746079057</ele>
        <time>2020-12-18T13:07:51Z</time>
      </trkpt>
      <trkpt lat="42.84372" lon="0.23445">
        <ele>2370.3748949021</ele>
        <time>2020-12-18T13:08:31Z</time>
      </trkpt>
      <trkpt lat="42.84358" lon="0.23549">
        <ele>2396.3743214123</ele>
        <time>2020-12-18T13:10:52Z</time>
      </trkpt>
      <trkpt lat="42.84345" lon="0.23579">
        <ele>2406.3737936877</ele>
        <time>2020-12-18T13:11:34Z</time>
      </trkpt>
      <trkpt lat="42.84373" lon="0.23603">
        <ele>2417.3749363087</ele>
        <time>2020-12-18T13:12:36Z</time>
      </trkpt>
      <trkpt lat="42.84375" lon="0.23627">
        <ele>2414.3749839179</ele>
        <time>2020-12-18T13:16:18Z</time>
      </trkpt>
      <trkpt lat="42.84366" lon="0.23627">
        <ele>2419.3746389188</ele>
        <time>2020-12-18T13:25:32Z</time>
      </trkpt>
      <trkpt lat="42.84362" lon="0.23638">
        <ele>2417.3744737953</ele>
        <time>2020-12-18T13:25:39Z</time>
      </trkpt>
      <trkpt lat="42.84369" lon="0.23652">
        <ele>2416.3747607917</ele>
        <time>2020-12-18T13:25:43Z</time>
      </trkpt>
      <trkpt lat="42.84368" lon="0.23663">
        <ele>2415.3747250848</ele>
        <time>2020-12-18T13:25:47Z</time>
      </trkpt>
      <trkpt lat="42.84356" lon="0.23669">
        <ele>2413.3742194884</ele>
        <time>2020-12-18T13:25:52Z</time>
      </trkpt>
      <trkpt lat="42.84362" lon="0.23685">
        <ele>2411.3744887151</ele>
        <time>2020-12-18T13:25:56Z</time>
      </trkpt>
      <trkpt lat="42.84352" lon="0.23703">
        <ele>2407.3740768284</ele>
        <time>2020-12-18T13:26:06Z</time>
      </trkpt>
      <trkpt lat="42.84363" lon="0.23747">
        <ele>2399.3744987734</ele>
        <time>2020-12-18T13:27:20Z</time>
      </trkpt>
      <trkpt lat="42.84339" lon="0.23767">
        <ele>2389.3735462539</ele>
        <time>2020-12-18T13:27:35Z</time>
      </trkpt>
      <trkpt lat="42.84281" lon="0.23787">
        <ele>2362.3712373748</ele>
        <time>2020-12-18T13:27:59Z</time>
      </trkpt>
      <trkpt lat="42.84275" lon="0.23803">
        <ele>2355.3709855825</ele>
        <time>2020-12-18T13:28:03Z</time>
      </trkpt>
      <trkpt lat="42.84254" lon="0.23804">
        <ele>2347.370146554</ele>
        <time>2020-12-18T13:28:12Z</time>
      </trkpt>
      <trkpt lat="42.84225" lon="0.23798">
        <ele>2333.3689813018</ele>
        <time>2020-12-18T13:28:21Z</time>
      </trkpt>
      <trkpt lat="42.84143" lon="0.23725">
        <ele>2319.3657140359</ele>
        <time>2020-12-18T13:28:39Z</time>
      </trkpt>
      <trkpt lat="42.84114" lon="0.23707">
        <ele>2316.3645523041</ele>
        <time>2020-12-18T13:28:44Z</time>
      </trkpt>
      <trkpt lat="42.84013" lon="0.23707">
        <ele>2306.3605095446</ele>
        <time>2020-12-18T13:29:02Z</time>
      </trkpt>
      <trkpt lat="42.83964" lon="0.23725">
        <ele>2302.3585516997</ele>
        <time>2020-12-18T13:29:14Z</time>
      </trkpt>
      <trkpt lat="42.83931" lon="0.23714">
        <ele>2299.3572295383</ele>
        <time>2020-12-18T13:29:22Z</time>
      </trkpt>
      <trkpt lat="42.83915" lon="0.23716">
        <ele>2299.3566032425</ele>
        <time>2020-12-18T13:29:26Z</time>
      </trkpt>
      <trkpt lat="42.839" lon="0.23732">
        <ele>2298.3559910282</ele>
        <time>2020-12-18T13:29:30Z</time>
      </trkpt>
      <trkpt lat="42.839" lon="0.23752">
        <ele>2297.3559911959</ele>
        <time>2020-12-18T13:29:34Z</time>
      </trkpt>
      <trkpt lat="42.83883" lon="0.23773">
        <ele>2294.3553062268</ele>
        <time>2020-12-18T13:29:39Z</time>
      </trkpt>
      <trkpt lat="42.83836" lon="0.23792">
        <ele>2280.3534228131</ele>
        <time>2020-12-18T13:30:25Z</time>
      </trkpt>
      <trkpt lat="42.83821" lon="0.23773">
        <ele>2274.3528253511</ele>
        <time>2020-12-18T13:30:37Z</time>
      </trkpt>
      <trkpt lat="42.83788" lon="0.23787">
        <ele>2259.3515375555</ele>
        <time>2020-12-18T13:30:51Z</time>
      </trkpt>
      <trkpt lat="42.8377" lon="0.23819">
        <ele>2243.3508041389</ele>
        <time>2020-12-18T13:31:30Z</time>
      </trkpt>
      <trkpt lat="42.83727" lon="0.23816">
        <ele>2226.3490637206</ele>
        <time>2020-12-18T13:31:42Z</time>
      </trkpt>
      <trkpt lat="42.83696" lon="0.23837">
        <ele>2215.3478485122</ele>
        <time>2020-12-18T13:31:51Z</time>
      </trkpt>
      <trkpt lat="42.83639" lon="0.23861">
        <ele>2196.3455577381</ele>
        <time>2020-12-18T13:32:09Z</time>
      </trkpt>
      <trkpt lat="42.83611" lon="0.23847">
        <ele>2178.3444216549</ele>
        <time>2020-12-18T13:32:55Z</time>
      </trkpt>
      <trkpt lat="42.83572" lon="0.23797">
        <ele>2172.3428659737</ele>
        <time>2020-12-18T13:33:35Z</time>
      </trkpt>
      <trkpt lat="42.83553" lon="0.23786">
        <ele>2171.3421216607</ele>
        <time>2020-12-18T13:33:39Z</time>
      </trkpt>
      <trkpt lat="42.83525" lon="0.23786">
        <ele>2170.3409914449</ele>
        <time>2020-12-18T13:33:44Z</time>
      </trkpt>
      <trkpt lat="42.83497" lon="0.23805">
        <ele>2168.3398805074</ele>
        <time>2020-12-18T13:33:52Z</time>
      </trkpt>
      <trkpt lat="42.83481" lon="0.23802">
        <ele>2161.3392196782</ele>
        <time>2020-12-18T13:34:02Z</time>
      </trkpt>
      <trkpt lat="42.83477" lon="0.23812">
        <ele>2156.3390926085</ele>
        <time>2020-12-18T13:34:13Z</time>
      </trkpt>
      <trkpt lat="42.83484" lon="0.23835">
        <ele>2156.3393398747</ele>
        <time>2020-12-18T13:34:17Z</time>
      </trkpt>
      <trkpt lat="42.83444" lon="0.23937">
        <ele>2122.3377439603</ele>
        <time>2020-12-18T13:35:07Z</time>
      </trkpt>
      <trkpt lat="42.83447" lon="0.23947">
        <ele>2120.337894164</ele>
        <time>2020-12-18T13:35:12Z</time>
      </trkpt>
      <trkpt lat="42.83443" lon="0.23957">
        <ele>2115.3377231732</ele>
        <time>2020-12-18T13:35:17Z</time>
      </trkpt>
      <trkpt lat="42.83461" lon="0.23993">
        <ele>2110.3384223916</ele>
        <time>2020-12-18T13:35:25Z</time>
      </trkpt>
      <trkpt lat="42.83452" lon="0.24003">
        <ele>2107.338083595</ele>
        <time>2020-12-18T13:35:29Z</time>
      </trkpt>
      <trkpt lat="42.83435" lon="0.24071">
        <ele>2086.3374160603</ele>
        <time>2020-12-18T13:36:35Z</time>
      </trkpt>
      <trkpt lat="42.83424" lon="0.24087">
        <ele>2077.3369483501</ele>
        <time>2020-12-18T13:36:43Z</time>
      </trkpt>
      <trkpt lat="42.83427" lon="0.24102">
        <ele>2073.3370604999</ele>
        <time>2020-12-18T13:36:47Z</time>
      </trkpt>
      <trkpt lat="42.83409" lon="0.24137">
        <ele>2058.3363656402</ele>
        <time>2020-12-18T13:37:02Z</time>
      </trkpt>
      <trkpt lat="42.83407" lon="0.24169">
        <ele>2044.3362648897</ele>
        <time>2020-12-18T13:38:24Z</time>
      </trkpt>
      <trkpt lat="42.83387" lon="0.24187">
        <ele>2040.3354756497</ele>
        <time>2020-12-18T13:38:33Z</time>
      </trkpt>
      <trkpt lat="42.83389" lon="0.24214">
        <ele>2033.335573718</ele>
        <time>2020-12-18T13:38:42Z</time>
      </trkpt>
      <trkpt lat="42.83384" lon="0.24263">
        <ele>2019.3353660144</ele>
        <time>2020-12-18T13:38:54Z</time>
      </trkpt>
      <trkpt lat="42.83374" lon="0.24294">
        <ele>2010.3349631801</ele>
        <time>2020-12-18T13:39:03Z</time>
      </trkpt>
      <trkpt lat="42.83364" lon="0.24303">
        <ele>2006.3345536403</ele>
        <time>2020-12-18T13:39:08Z</time>
      </trkpt>
      <trkpt lat="42.83359" lon="0.24326">
        <ele>2000.3343678974</ele>
        <time>2020-12-18T13:39:22Z</time>
      </trkpt>
      <trkpt lat="42.83347" lon="0.24337">
        <ele>1998.3338644803</ele>
        <time>2020-12-18T13:39:26Z</time>
      </trkpt>
      <trkpt lat="42.83307" lon="0.24425">
        <ele>1981.3322871737</ele>
        <time>2020-12-18T13:39:45Z</time>
      </trkpt>
      <trkpt lat="42.83286" lon="0.24488">
        <ele>1967.3314397633</ele>
        <time>2020-12-18T13:39:58Z</time>
      </trkpt>
      <trkpt lat="42.83199" lon="0.24674">
        <ele>1942.327952724</ele>
        <time>2020-12-18T13:40:36Z</time>
      </trkpt>
      <trkpt lat="42.83149" lon="0.24701">
        <ele>1933.3259472698</ele>
        <time>2020-12-18T13:46:36Z</time>
      </trkpt>
      <trkpt lat="42.83096" lon="0.2471">
        <ele>1931.3238232955</ele>
        <time>2020-12-18T13:46:50Z</time>
      </trkpt>
      <trkpt lat="42.83074" lon="0.24706">
        <ele>1929.3229467161</ele>
        <time>2020-12-18T13:46:55Z</time>
      </trkpt>
      <trkpt lat="42.83016" lon="0.24724">
        <ele>1918.3206485659</ele>
        <time>2020-12-18T13:47:08Z</time>
      </trkpt>
      <trkpt lat="42.82942" lon="0.2482">
        <ele>1888.3176721521</ele>
        <time>2020-12-18T13:47:30Z</time>
      </trkpt>
      <trkpt lat="42.82914" lon="0.24876">
        <ele>1875.3165476359</ele>
        <time>2020-12-18T13:47:41Z</time>
      </trkpt>
      <trkpt lat="42.82891" lon="0.24897">
        <ele>1866.3156561367</ele>
        <time>2020-12-18T13:48:13Z</time>
      </trkpt>
      <trkpt lat="42.82893" lon="0.24912">
        <ele>1865.3157188334</ele>
        <time>2020-12-18T13:48:18Z</time>
      </trkpt>
      <trkpt lat="42.82849" lon="0.24952">
        <ele>1851.3139398582</ele>
        <time>2020-12-18T13:48:32Z</time>
      </trkpt>
      <trkpt lat="42.82775" lon="0.24979">
        <ele>1838.3109941222</ele>
        <time>2020-12-18T13:48:50Z</time>
      </trkpt>
      <trkpt lat="42.8266" lon="0.2497">
        <ele>1810.3064127415</ele>
        <time>2020-12-18T13:49:40Z</time>
      </trkpt>
      <trkpt lat="42.82658" lon="0.24982">
        <ele>1808.3063039444</ele>
        <time>2020-12-18T13:49:44Z</time>
      </trkpt>
      <trkpt lat="42.82597" lon="0.24983">
        <ele>1799.3038772158</ele>
        <time>2020-12-18T13:50:01Z</time>
      </trkpt>
      <trkpt lat="42.82584" lon="0.25011">
        <ele>1797.3033588789</ele>
        <time>2020-12-18T13:50:10Z</time>
      </trkpt>
      <trkpt lat="42.82588" lon="0.25022">
        <ele>1793.3035012037</ele>
        <time>2020-12-18T13:50:15Z</time>
      </trkpt>
      <trkpt lat="42.82584" lon="0.25038">
        <ele>1792.3033478148</ele>
        <time>2020-12-18T13:50:19Z</time>
      </trkpt>
      <trkpt lat="42.82593" lon="0.25045">
        <ele>1790.3036990166</ele>
        <time>2020-12-18T13:50:23Z</time>
      </trkpt>
      <trkpt lat="42.82606" lon="0.25032">
        <ele>1788.3042502105</ele>
        <time>2020-12-18T13:50:27Z</time>
      </trkpt>
      <trkpt lat="42.82631" lon="0.25037">
        <ele>1783.3052223437</ele>
        <time>2020-12-18T13:50:36Z</time>
      </trkpt>
      <trkpt lat="42.82629" lon="0.25049">
        <ele>1780.3051740639</ele>
        <time>2020-12-18T13:50:40Z</time>
      </trkpt>
      <trkpt lat="42.82651" lon="0.25102">
        <ele>1766.3060464524</ele>
        <time>2020-12-18T13:50:57Z</time>
      </trkpt>
      <trkpt lat="42.82625" lon="0.25146">
        <ele>1759.3050065935</ele>
        <time>2020-12-18T13:51:31Z</time>
      </trkpt>
      <trkpt lat="42.82636" lon="0.25152">
        <ele>1756.3054446317</ele>
        <time>2020-12-18T13:51:35Z</time>
      </trkpt>
      <trkpt lat="42.82651" lon="0.25146">
        <ele>1754.3060534932</ele>
        <time>2020-12-18T13:51:39Z</time>
      </trkpt>
      <trkpt lat="42.82672" lon="0.25167">
        <ele>1745.3068633527</ele>
        <time>2020-12-18T13:51:48Z</time>
      </trkpt>
      <trkpt lat="42.827" lon="0.25213">
        <ele>1728.308011841</ele>
        <time>2020-12-18T13:52:06Z</time>
      </trkpt>
      <trkpt lat="42.82696" lon="0.25228">
        <ele>1724.3078462146</ele>
        <time>2020-12-18T13:52:11Z</time>
      </trkpt>
      <trkpt lat="42.82704" lon="0.25237">
        <ele>1720.308173947</ele>
        <time>2020-12-18T13:52:16Z</time>
      </trkpt>
      <trkpt lat="42.82713" lon="0.25235">
        <ele>1716.3085108995</ele>
        <time>2020-12-18T13:52:34Z</time>
      </trkpt>
      <trkpt lat="42.82714" lon="0.25257">
        <ele>1704.3085499592</ele>
        <time>2020-12-18T13:52:53Z</time>
      </trkpt>
      <trkpt lat="42.82697" lon="0.25275">
        <ele>1696.307869181</ele>
        <time>2020-12-18T13:53:03Z</time>
      </trkpt>
      <trkpt lat="42.82728" lon="0.25336">
        <ele>1674.309104003</ele>
        <time>2020-12-18T13:53:28Z</time>
      </trkpt>
      <trkpt lat="42.82701" lon="0.25348">
        <ele>1667.3080555946</ele>
        <time>2020-12-18T13:53:37Z</time>
      </trkpt>
      <trkpt lat="42.82673" lon="0.25378">
        <ele>1654.3069190085</ele>
        <time>2020-12-18T13:53:55Z</time>
      </trkpt>
      <trkpt lat="42.82675" lon="0.25435">
        <ele>1650.3069986366</ele>
        <time>2020-12-18T13:54:04Z</time>
      </trkpt>
      <trkpt lat="42.82666" lon="0.25464">
        <ele>1647.3066328503</ele>
        <time>2020-12-18T13:54:12Z</time>
      </trkpt>
      <trkpt lat="42.82646" lon="0.25488">
        <ele>1640.305839587</ele>
        <time>2020-12-18T13:54:21Z</time>
      </trkpt>
      <trkpt lat="42.8264" lon="0.2551">
        <ele>1634.3056037202</ele>
        <time>2020-12-18T13:54:26Z</time>
      </trkpt>
      <trkpt lat="42.82627" lon="0.25527">
        <ele>1630.3050644286</ele>
        <time>2020-12-18T13:54:31Z</time>
      </trkpt>
      <trkpt lat="42.8263" lon="0.25566">
        <ele>1626.3052037358</ele>
        <time>2020-12-18T13:54:40Z</time>
      </trkpt>
      <trkpt lat="42.82621" lon="0.25572">
        <ele>1622.304851193</ele>
        <time>2020-12-18T13:54:44Z</time>
      </trkpt>
      <trkpt lat="42.82605" lon="0.25629">
        <ele>1610.3041997515</ele>
        <time>2020-12-18T13:54:57Z</time>
      </trkpt>
      <trkpt lat="42.82605" lon="0.25656">
        <ele>1605.3041940518</ele>
        <time>2020-12-18T13:55:02Z</time>
      </trkpt>
      <trkpt lat="42.82572" lon="0.25711">
        <ele>1599.3028626703</ele>
        <time>2020-12-18T13:55:14Z</time>
      </trkpt>
      <trkpt lat="42.82555" lon="0.25726">
        <ele>1596.3021834008</ele>
        <time>2020-12-18T13:55:18Z</time>
      </trkpt>
      <trkpt lat="42.82547" lon="0.25747">
        <ele>1596.3018764555</ele>
        <time>2020-12-18T13:55:22Z</time>
      </trkpt>
      <trkpt lat="42.82544" lon="0.25766">
        <ele>1595.3017577678</ele>
        <time>2020-12-18T13:55:26Z</time>
      </trkpt>
      <trkpt lat="42.82552" lon="0.25796">
        <ele>1594.3020942174</ele>
        <time>2020-12-18T13:55:34Z</time>
      </trkpt>
      <trkpt lat="42.82551" lon="0.25825">
        <ele>1597.3020291738</ele>
        <time>2020-12-18T14:01:18Z</time>
      </trkpt>
    </trkseg>
  </trk>
</gpx>